SKBG/BGA METAR and TAF weather

Enter ICAO airport designator
Station Type Date Time Source
SKBG METAR 2019/08/20 05:00 UTC NOAA

SKBG 200500Z 18007KT 9999 SCT015 SCT080 19/16 A3004


Station Type Date Time Source
SKBG Decoded METAR 2019/08/20 05:00 UTC NOAA

Bucaramanga / Palonegro, Colombia (SKBG) 07-06N 073-12W
Aug 20, 2019 - 01:00 AM EDT / 2019.08.20 0500 UTC
Wind: from the S (180 degrees) at 8 MPH (7 KT):0
Visibility: greater than 7 mile(s):0
Sky conditions: partly cloudy
Temperature: 66 F (19 C)
Dew Point: 60 F (16 C)
Relative Humidity: 82%
Pressure (altimeter): 30.04 in. Hg (1017 hPa)
ob: SKBG 200500Z 18007KT 9999 SCT015 SCT080 19/16 A3004
cycle: 5

Station Type Date Time Source
SKBG TAF 2019/08/20 06:30 UTC NOAA

TAF SKBG 200430Z 2006/2106 18005KT 9999 SCT015 SCT080
TEMPO 2017/2022 33008KT TX28/2019Z TN18/2011Z

Example: see airport list